sensor_id;sensor_type;location;lat;lon;timestamp;P1;durP1;ratioP1;P2;durP2;ratioP2
18042;SDS011;9146;48.074;11.968;2022-09-09T00:00:19;1.60;;;1.50;;
18042;SDS011;9146;48.074;11.968;2022-09-09T00:02:50;2.03;;;1.93;;
18042;SDS011;9146;48.074;11.968;2022-09-09T00:05:26;2.47;;;2.27;;
18042;SDS011;9146;48.074;11.968;2022-09-09T00:07:59;2.33;;;2.20;;
18042;SDS011;9146;48.074;11.968;2022-09-09T00:10:29;2.33;;;2.20;;
18042;SDS011;9146;48.074;11.968;2022-09-09T00:13:02;5.13;;;2.30;;
18042;SDS011;9146;48.074;11.968;2022-09-09T00:15:36;2.27;;;2.17;;
18042;SDS011;9146;48.074;11.968;2022-09-09T00:18:13;2.53;;;2.30;;
18042;SDS011;9146;48.074;11.968;2022-09-09T00:20:48;2.97;;;2.70;;
18042;SDS011;9146;48.074;11.968;2022-09-09T00:23:23;2.40;;;2.30;;
18042;SDS011;9146;48.074;11.968;2022-09-09T00:25:54;2.40;;;2.30;;
18042;SDS011;9146;48.074;11.968;2022-09-09T00:28:27;2.50;;;2.30;;
18042;SDS011;9146;48.074;11.968;2022-09-09T00:30:59;2.80;;;2.50;;
18042;SDS011;9146;48.074;11.968;2022-09-09T00:33:28;2.70;;;2.50;;
18042;SDS011;9146;48.074;11.968;2022-09-09T00:35:57;2.50;;;2.37;;
18042;SDS011;9146;48.074;11.968;2022-09-09T00:38:27;2.27;;;2.17;;
18042;SDS011;9146;48.074;11.968;2022-09-09T00:41:01;2.77;;;2.53;;
18042;SDS011;9146;48.074;11.968;2022-09-09T00:43:35;2.87;;;2.53;;
18042;SDS011;9146;48.074;11.968;2022-09-09T00:46:16;1.90;;;1.80;;
18042;SDS011;9146;48.074;11.968;2022-09-09T00:49:00;2.43;;;2.30;;
18042;SDS011;9146;48.074;11.968;2022-09-09T00:51:40;2.30;;;2.10;;
18042;SDS011;9146;48.074;11.968;2022-09-09T00:54:16;2.10;;;2.00;;
18042;SDS011;9146;48.074;11.968;2022-09-09T00:56:56;2.00;;;1.90;;
18042;SDS011;9146;48.074;11.968;2022-09-09T00:59:34;2.17;;;2.07;;
18042;SDS011;9146;48.074;11.968;2022-09-09T01:02:12;1.90;;;1.80;;
18042;SDS011;9146;48.074;11.968;2022-09-09T01:04:44;2.23;;;2.00;;
18042;SDS011;9146;48.074;11.968;2022-09-09T01:07:12;2.67;;;2.47;;
18042;SDS011;9146;48.074;11.968;2022-09-09T01:09:46;2.30;;;2.10;;
18042;SDS011;9146;48.074;11.968;2022-09-09T01:12:23;1.63;;;1.47;;
18042;SDS011;9146;48.074;11.968;2022-09-09T01:14:56;2.03;;;1.93;;
18042;SDS011;9146;48.074;11.968;2022-09-09T01:17:30;2.00;;;1.77;;
18042;SDS011;9146;48.074;11.968;2022-09-09T01:20:02;2.10;;;1.90;;
18042;SDS011;9146;48.074;11.968;2022-09-09T01:22:34;1.73;;;1.63;;
18042;SDS011;9146;48.074;11.968;2022-09-09T01:25:16;1.90;;;1.73;;
18042;SDS011;9146;48.074;11.968;2022-09-09T01:27:56;2.63;;;2.53;;
18042;SDS011;9146;48.074;11.968;2022-09-09T01:30:26;2.30;;;2.10;;
18042;SDS011;9146;48.074;11.968;2022-09-09T01:32:54;2.80;;;2.60;;
18042;SDS011;9146;48.074;11.968;2022-09-09T01:35:28;2.43;;;2.30;;
18042;SDS011;9146;48.074;11.968;2022-09-09T01:38:01;2.50;;;2.30;;
18042;SDS011;9146;48.074;11.968;2022-09-09T01:40:28;2.60;;;2.40;;
18042;SDS011;9146;48.074;11.968;2022-09-09T01:42:56;2.40;;;2.30;;
18042;SDS011;9146;48.074;11.968;2022-09-09T01:45:25;2.60;;;2.40;;
18042;SDS011;9146;48.074;11.968;2022-09-09T01:47:52;2.53;;;2.33;;
18042;SDS011;9146;48.074;11.968;2022-09-09T01:50:19;2.50;;;2.30;;
18042;SDS011;9146;48.074;11.968;2022-09-09T01:52:47;2.23;;;2.03;;
18042;SDS011;9146;48.074;11.968;2022-09-09T01:55:18;2.97;;;2.70;;
18042;SDS011;9146;48.074;11.968;2022-09-09T01:57:54;3.43;;;3.23;;
18042;SDS011;9146;48.074;11.968;2022-09-09T02:00:29;3.00;;;2.80;;
18042;SDS011;9146;48.074;11.968;2022-09-09T02:02:59;3.57;;;2.87;;
18042;SDS011;9146;48.074;11.968;2022-09-09T02:05:34;3.40;;;2.77;;
18042;SDS011;9146;48.074;11.968;2022-09-09T02:08:05;3.20;;;3.00;;
18042;SDS011;9146;48.074;11.968;2022-09-09T02:10:37;4.03;;;2.97;;
18042;SDS011;9146;48.074;11.968;2022-09-09T02:13:12;2.60;;;2.40;;
18042;SDS011;9146;48.074;11.968;2022-09-09T02:15:42;2.83;;;2.37;;
18042;SDS011;9146;48.074;11.968;2022-09-09T02:18:13;2.60;;;2.40;;
18042;SDS011;9146;48.074;11.968;2022-09-09T02:20:44;2.30;;;2.20;;
18042;SDS011;9146;48.074;11.968;2022-09-09T02:23:12;2.40;;;2.20;;
18042;SDS011;9146;48.074;11.968;2022-09-09T02:25:41;2.63;;;2.17;;
18042;SDS011;9146;48.074;11.968;2022-09-09T02:28:09;2.50;;;2.30;;
18042;SDS011;9146;48.074;11.968;2022-09-09T02:30:39;2.63;;;2.43;;
18042;SDS011;9146;48.074;11.968;2022-09-09T02:33:07;3.47;;;2.53;;
18042;SDS011;9146;48.074;11.968;2022-09-09T02:35:37;2.80;;;2.60;;
18042;SDS011;9146;48.074;11.968;2022-09-09T02:38:07;2.40;;;2.30;;
18042;SDS011;9146;48.074;11.968;2022-09-09T02:40:36;2.73;;;2.53;;
18042;SDS011;9146;48.074;11.968;2022-09-09T02:43:03;3.17;;;2.87;;
18042;SDS011;9146;48.074;11.968;2022-09-09T02:45:34;2.30;;;2.20;;
18042;SDS011;9146;48.074;11.968;2022-09-09T02:48:09;3.07;;;2.77;;
18042;SDS011;9146;48.074;11.968;2022-09-09T02:50:45;2.87;;;2.67;;
18042;SDS011;9146;48.074;11.968;2022-09-09T02:53:21;2.20;;;2.00;;
18042;SDS011;9146;48.074;11.968;2022-09-09T02:55:51;2.47;;;2.33;;
18042;SDS011;9146;48.074;11.968;2022-09-09T02:58:20;2.37;;;2.27;;
18042;SDS011;9146;48.074;11.968;2022-09-09T03:00:50;1.90;;;1.80;;
18042;SDS011;9146;48.074;11.968;2022-09-09T03:03:18;1.87;;;1.77;;
18042;SDS011;9146;48.074;11.968;2022-09-09T03:05:47;2.87;;;2.67;;
18042;SDS011;9146;48.074;11.968;2022-09-09T03:08:14;2.90;;;2.33;;
18042;SDS011;9146;48.074;11.968;2022-09-09T03:10:42;2.60;;;2.40;;
18042;SDS011;9146;48.074;11.968;2022-09-09T03:13:09;3.37;;;2.90;;
18042;SDS011;9146;48.074;11.968;2022-09-09T03:15:36;7.43;;;2.80;;
18042;SDS011;9146;48.074;11.968;2022-09-09T03:18:04;2.10;;;1.90;;
18042;SDS011;9146;48.074;11.968;2022-09-09T03:20:31;2.50;;;2.30;;
18042;SDS011;9146;48.074;11.968;2022-09-09T03:22:59;2.90;;;2.20;;
18042;SDS011;9146;48.074;11.968;2022-09-09T03:25:27;2.57;;;2.40;;
18042;SDS011;9146;48.074;11.968;2022-09-09T03:27:55;2.20;;;2.03;;
18042;SDS011;9146;48.074;11.968;2022-09-09T03:30:22;2.13;;;1.97;;
18042;SDS011;9146;48.074;11.968;2022-09-09T03:32:50;2.23;;;2.07;;
18042;SDS011;9146;48.074;11.968;2022-09-09T03:35:19;2.30;;;1.87;;
18042;SDS011;9146;48.074;11.968;2022-09-09T03:37:46;2.47;;;2.30;;
18042;SDS011;9146;48.074;11.968;2022-09-09T03:40:13;2.00;;;1.90;;
18042;SDS011;9146;48.074;11.968;2022-09-09T03:42:40;2.33;;;2.13;;
18042;SDS011;9146;48.074;11.968;2022-09-09T03:45:08;1.70;;;1.60;;
18042;SDS011;9146;48.074;11.968;2022-09-09T03:47:36;2.83;;;2.30;;
18042;SDS011;9146;48.074;11.968;2022-09-09T03:50:03;2.60;;;2.40;;
18042;SDS011;9146;48.074;11.968;2022-09-09T03:52:35;2.23;;;2.00;;
18042;SDS011;9146;48.074;11.968;2022-09-09T03:55:03;2.80;;;2.23;;
18042;SDS011;9146;48.074;11.968;2022-09-09T03:57:31;1.97;;;1.87;;
18042;SDS011;9146;48.074;11.968;2022-09-09T04:00:00;1.93;;;1.73;;
18042;SDS011;9146;48.074;11.968;2022-09-09T04:02:28;1.80;;;1.70;;
18042;SDS011;9146;48.074;11.968;2022-09-09T04:04:54;1.80;;;1.70;;
18042;SDS011;9146;48.074;11.968;2022-09-09T04:07:21;1.67;;;1.57;;
18042;SDS011;9146;48.074;11.968;2022-09-09T04:09:49;2.40;;;1.97;;
18042;SDS011;9146;48.074;11.968;2022-09-09T04:12:16;2.17;;;2.07;;
18042;SDS011;9146;48.074;11.968;2022-09-09T04:14:43;1.63;;;1.53;;
18042;SDS011;9146;48.074;11.968;2022-09-09T04:17:10;2.60;;;2.40;;
18042;SDS011;9146;48.074;11.968;2022-09-09T04:19:37;2.57;;;2.37;;
18042;SDS011;9146;48.074;11.968;2022-09-09T04:22:04;2.17;;;2.07;;
18042;SDS011;9146;48.074;11.968;2022-09-09T04:24:30;2.63;;;2.43;;
18042;SDS011;9146;48.074;11.968;2022-09-09T04:26:59;1.83;;;1.67;;
18042;SDS011;9146;48.074;11.968;2022-09-09T04:29:25;1.90;;;1.80;;
18042;SDS011;9146;48.074;11.968;2022-09-09T04:31:52;2.03;;;1.80;;
18042;SDS011;9146;48.074;11.968;2022-09-09T04:34:19;1.93;;;1.70;;
18042;SDS011;9146;48.074;11.968;2022-09-09T04:36:46;4.40;;;2.30;;
18042;SDS011;9146;48.074;11.968;2022-09-09T04:39:13;3.40;;;2.30;;
18042;SDS011;9146;48.074;11.968;2022-09-09T04:41:40;2.93;;;2.23;;
18042;SDS011;9146;48.074;11.968;2022-09-09T04:44:08;2.03;;;1.93;;
18042;SDS011;9146;48.074;11.968;2022-09-09T04:46:35;2.40;;;2.20;;
18042;SDS011;9146;48.074;11.968;2022-09-09T04:49:02;2.53;;;2.23;;
18042;SDS011;9146;48.074;11.968;2022-09-09T04:51:29;2.27;;;2.17;;
18042;SDS011;9146;48.074;11.968;2022-09-09T04:53:56;3.30;;;2.40;;
18042;SDS011;9146;48.074;11.968;2022-09-09T04:56:23;2.80;;;2.13;;
18042;SDS011;9146;48.074;11.968;2022-09-09T04:58:51;2.70;;;2.50;;
18042;SDS011;9146;48.074;11.968;2022-09-09T05:01:21;2.13;;;2.03;;
18042;SDS011;9146;48.074;11.968;2022-09-09T05:03:49;2.20;;;2.00;;
18042;SDS011;9146;48.074;11.968;2022-09-09T05:06:17;2.57;;;2.37;;
18042;SDS011;9146;48.074;11.968;2022-09-09T05:08:45;3.20;;;2.87;;
18042;SDS011;9146;48.074;11.968;2022-09-09T05:11:14;4.33;;;2.80;;
18042;SDS011;9146;48.074;11.968;2022-09-09T05:13:42;3.10;;;2.00;;
18042;SDS011;9146;48.074;11.968;2022-09-09T05:16:09;2.10;;;2.00;;
18042;SDS011;9146;48.074;11.968;2022-09-09T05:18:38;3.50;;;2.33;;
18042;SDS011;9146;48.074;11.968;2022-09-09T05:21:05;2.03;;;1.83;;
18042;SDS011;9146;48.074;11.968;2022-09-09T05:23:32;2.47;;;2.10;;
18042;SDS011;9146;48.074;11.968;2022-09-09T05:26:00;2.50;;;2.30;;
18042;SDS011;9146;48.074;11.968;2022-09-09T05:28:27;2.20;;;2.10;;
18042;SDS011;9146;48.074;11.968;2022-09-09T05:30:58;2.17;;;2.07;;
18042;SDS011;9146;48.074;11.968;2022-09-09T05:33:28;2.10;;;2.00;;
18042;SDS011;9146;48.074;11.968;2022-09-09T05:35:58;1.90;;;1.80;;
18042;SDS011;9146;48.074;11.968;2022-09-09T05:38:26;2.03;;;1.90;;
18042;SDS011;9146;48.074;11.968;2022-09-09T05:40:54;2.20;;;2.10;;
18042;SDS011;9146;48.074;11.968;2022-09-09T05:43:21;1.90;;;1.80;;
18042;SDS011;9146;48.074;11.968;2022-09-09T05:45:58;2.27;;;2.10;;
18042;SDS011;9146;48.074;11.968;2022-09-09T05:48:27;4.10;;;1.77;;
18042;SDS011;9146;48.074;11.968;2022-09-09T05:50:56;1.87;;;1.77;;
18042;SDS011;9146;48.074;11.968;2022-09-09T05:53:24;3.30;;;2.00;;
18042;SDS011;9146;48.074;11.968;2022-09-09T05:55:57;2.20;;;1.80;;
18042;SDS011;9146;48.074;11.968;2022-09-09T05:58:26;1.97;;;1.70;;
18042;SDS011;9146;48.074;11.968;2022-09-09T06:00:59;1.90;;;1.40;;
18042;SDS011;9146;48.074;11.968;2022-09-09T06:03:27;3.80;;;1.70;;
18042;SDS011;9146;48.074;11.968;2022-09-09T06:05:59;1.47;;;1.40;;
18042;SDS011;9146;48.074;11.968;2022-09-09T06:08:27;1.80;;;1.60;;
18042;SDS011;9146;48.074;11.968;2022-09-09T06:11:00;2.13;;;2.03;;
18042;SDS011;9146;48.074;11.968;2022-09-09T06:13:29;2.80;;;2.20;;
18042;SDS011;9146;48.074;11.968;2022-09-09T06:15:56;2.73;;;1.70;;
18042;SDS011;9146;48.074;11.968;2022-09-09T06:18:23;3.20;;;1.93;;
18042;SDS011;9146;48.074;11.968;2022-09-09T06:20:58;2.70;;;2.00;;
18042;SDS011;9146;48.074;11.968;2022-09-09T06:23:28;2.47;;;2.00;;
18042;SDS011;9146;48.074;11.968;2022-09-09T06:26:04;6.40;;;2.40;;
18042;SDS011;9146;48.074;11.968;2022-09-09T06:28:33;1.70;;;1.60;;
18042;SDS011;9146;48.074;11.968;2022-09-09T06:31:00;2.27;;;2.03;;
18042;SDS011;9146;48.074;11.968;2022-09-09T06:33:30;2.60;;;2.40;;
18042;SDS011;9146;48.074;11.968;2022-09-09T06:36:02;2.50;;;2.30;;
18042;SDS011;9146;48.074;11.968;2022-09-09T06:38:30;3.50;;;2.40;;
18042;SDS011;9146;48.074;11.968;2022-09-09T06:40:57;2.53;;;2.33;;
18042;SDS011;9146;48.074;11.968;2022-09-09T06:43:26;3.53;;;2.57;;
18042;SDS011;9146;48.074;11.968;2022-09-09T06:45:55;2.20;;;2.10;;
18042;SDS011;9146;48.074;11.968;2022-09-09T06:48:22;2.47;;;2.07;;
18042;SDS011;9146;48.074;11.968;2022-09-09T06:50:51;3.50;;;2.53;;
18042;SDS011;9146;48.074;11.968;2022-09-09T06:53:27;2.27;;;2.17;;
18042;SDS011;9146;48.074;11.968;2022-09-09T06:55:54;2.30;;;2.10;;
18042;SDS011;9146;48.074;11.968;2022-09-09T06:58:21;2.13;;;1.90;;
18042;SDS011;9146;48.074;11.968;2022-09-09T07:00:48;6.87;;;2.77;;
18042;SDS011;9146;48.074;11.968;2022-09-09T07:03:15;3.43;;;2.67;;
18042;SDS011;9146;48.074;11.968;2022-09-09T07:05:42;2.03;;;1.93;;
18042;SDS011;9146;48.074;11.968;2022-09-09T07:08:10;3.93;;;2.87;;
18042;SDS011;9146;48.074;11.968;2022-09-09T07:10:38;5.13;;;2.60;;
18042;SDS011;9146;48.074;11.968;2022-09-09T07:13:05;2.13;;;2.03;;
18042;SDS011;9146;48.074;11.968;2022-09-09T07:15:32;4.50;;;2.13;;
18042;SDS011;9146;48.074;11.968;2022-09-09T07:18:00;3.27;;;2.63;;
18042;SDS011;9146;48.074;11.968;2022-09-09T07:20:28;2.50;;;2.30;;
18042;SDS011;9146;48.074;11.968;2022-09-09T07:22:55;2.67;;;2.10;;
18042;SDS011;9146;48.074;11.968;2022-09-09T07:25:23;2.27;;;2.07;;
18042;SDS011;9146;48.074;11.968;2022-09-09T07:27:53;2.03;;;1.83;;
18042;SDS011;9146;48.074;11.968;2022-09-09T07:30:20;1.70;;;1.70;;
18042;SDS011;9146;48.074;11.968;2022-09-09T07:32:47;1.80;;;1.70;;
18042;SDS011;9146;48.074;11.968;2022-09-09T07:35:14;2.27;;;2.07;;
18042;SDS011;9146;48.074;11.968;2022-09-09T07:37:40;2.87;;;2.30;;
18042;SDS011;9146;48.074;11.968;2022-09-09T07:40:08;1.90;;;1.80;;
18042;SDS011;9146;48.074;11.968;2022-09-09T07:42:35;2.20;;;2.03;;
18042;SDS011;9146;48.074;11.968;2022-09-09T07:45:04;2.00;;;1.90;;
18042;SDS011;9146;48.074;11.968;2022-09-09T07:47:31;1.60;;;1.47;;
18042;SDS011;9146;48.074;11.968;2022-09-09T07:49:58;8.43;;;2.13;;
18042;SDS011;9146;48.074;11.968;2022-09-09T07:52:25;3.47;;;2.63;;
18042;SDS011;9146;48.074;11.968;2022-09-09T07:54:52;3.43;;;2.30;;
18042;SDS011;9146;48.074;11.968;2022-09-09T07:57:20;3.50;;;1.80;;
18042;SDS011;9146;48.074;11.968;2022-09-09T07:59:48;1.97;;;1.87;;
18042;SDS011;9146;48.074;11.968;2022-09-09T08:02:17;2.50;;;1.50;;
18042;SDS011;9146;48.074;11.968;2022-09-09T08:04:43;2.50;;;1.93;;
18042;SDS011;9146;48.074;11.968;2022-09-09T08:07:11;2.70;;;1.80;;
18042;SDS011;9146;48.074;11.968;2022-09-09T08:09:39;2.30;;;1.80;;
18042;SDS011;9146;48.074;11.968;2022-09-09T08:12:06;4.80;;;1.80;;
18042;SDS011;9146;48.074;11.968;2022-09-09T08:14:34;2.77;;;2.10;;
18042;SDS011;9146;48.074;11.968;2022-09-09T08:17:01;1.93;;;1.83;;
18042;SDS011;9146;48.074;11.968;2022-09-09T08:19:30;2.10;;;1.87;;
18042;SDS011;9146;48.074;11.968;2022-09-09T08:22:00;2.27;;;2.07;;
18042;SDS011;9146;48.074;11.968;2022-09-09T08:24:28;2.10;;;2.00;;
18042;SDS011;9146;48.074;11.968;2022-09-09T08:26:55;2.40;;;2.20;;
18042;SDS011;9146;48.074;11.968;2022-09-09T08:29:22;2.00;;;1.90;;
18042;SDS011;9146;48.074;11.968;2022-09-09T08:31:50;2.47;;;2.30;;
18042;SDS011;9146;48.074;11.968;2022-09-09T08:34:19;2.40;;;1.87;;
18042;SDS011;9146;48.074;11.968;2022-09-09T08:36:48;2.87;;;2.17;;
18042;SDS011;9146;48.074;11.968;2022-09-09T08:39:16;1.93;;;1.83;;
18042;SDS011;9146;48.074;11.968;2022-09-09T08:44:48;3.13;;;2.20;;
18042;SDS011;9146;48.074;11.968;2022-09-09T08:47:28;1.87;;;1.73;;
18042;SDS011;9146;48.074;11.968;2022-09-09T08:50:19;3.43;;;3.13;;
18042;SDS011;9146;48.074;11.968;2022-09-09T08:52:52;3.63;;;3.33;;
18042;SDS011;9146;48.074;11.968;2022-09-09T08:55:28;4.07;;;2.70;;
18042;SDS011;9146;48.074;11.968;2022-09-09T08:58:05;2.77;;;2.57;;
18042;SDS011;9146;48.074;11.968;2022-09-09T09:00:40;3.33;;;2.17;;
18042;SDS011;9146;48.074;11.968;2022-09-09T09:03:13;3.00;;;2.30;;
18042;SDS011;9146;48.074;11.968;2022-09-09T09:05:50;1.93;;;1.83;;
18042;SDS011;9146;48.074;11.968;2022-09-09T09:08:30;3.60;;;2.30;;
18042;SDS011;9146;48.074;11.968;2022-09-09T09:11:06;3.80;;;2.30;;
18042;SDS011;9146;48.074;11.968;2022-09-09T09:13:34;7.10;;;4.10;;
18042;SDS011;9146;48.074;11.968;2022-09-09T09:16:10;2.27;;;2.17;;
18042;SDS011;9146;48.074;11.968;2022-09-09T09:18:45;5.90;;;5.00;;
18042;SDS011;9146;48.074;11.968;2022-09-09T09:21:12;4.27;;;3.23;;
18042;SDS011;9146;48.074;11.968;2022-09-09T09:23:48;3.10;;;2.77;;
18042;SDS011;9146;48.074;11.968;2022-09-09T09:26:20;3.83;;;2.87;;
18042;SDS011;9146;48.074;11.968;2022-09-09T09:28:51;2.90;;;2.70;;
18042;SDS011;9146;48.074;11.968;2022-09-09T09:31:22;3.43;;;2.57;;
18042;SDS011;9146;48.074;11.968;2022-09-09T09:33:52;2.37;;;2.17;;
18042;SDS011;9146;48.074;11.968;2022-09-09T09:36:20;2.00;;;1.90;;
18042;SDS011;9146;48.074;11.968;2022-09-09T09:38:54;2.23;;;2.13;;
18042;SDS011;9146;48.074;11.968;2022-09-09T09:41:29;7.03;;;4.70;;
18042;SDS011;9146;48.074;11.968;2022-09-09T09:43:57;4.97;;;4.03;;
18042;SDS011;9146;48.074;11.968;2022-09-09T09:46:26;5.30;;;3.00;;
18042;SDS011;9146;48.074;11.968;2022-09-09T09:48:57;2.60;;;2.40;;
18042;SDS011;9146;48.074;11.968;2022-09-09T09:51:25;5.00;;;3.30;;
18042;SDS011;9146;48.074;11.968;2022-09-09T09:53:54;2.97;;;2.80;;
18042;SDS011;9146;48.074;11.968;2022-09-09T09:56:34;3.00;;;2.77;;
18042;SDS011;9146;48.074;11.968;2022-09-09T09:59:02;3.40;;;3.10;;
18042;SDS011;9146;48.074;11.968;2022-09-09T10:01:30;4.30;;;2.50;;
18042;SDS011;9146;48.074;11.968;2022-09-09T10:03:59;4.07;;;3.30;;
18042;SDS011;9146;48.074;11.968;2022-09-09T10:06:31;15.27;;;5.53;;
18042;SDS011;9146;48.074;11.968;2022-09-09T10:09:00;6.30;;;4.07;;
18042;SDS011;9146;48.074;11.968;2022-09-09T10:11:39;15.17;;;5.47;;
18042;SDS011;9146;48.074;11.968;2022-09-09T10:14:12;10.33;;;4.00;;
18042;SDS011;9146;48.074;11.968;2022-09-09T10:16:50;8.30;;;3.97;;
18042;SDS011;9146;48.074;11.968;2022-09-09T10:19:29;4.50;;;3.57;;
18042;SDS011;9146;48.074;11.968;2022-09-09T10:22:02;3.87;;;3.03;;
18042;SDS011;9146;48.074;11.968;2022-09-09T10:24:39;3.47;;;2.37;;
18042;SDS011;9146;48.074;11.968;2022-09-09T10:27:32;3.10;;;2.77;;
18042;SDS011;9146;48.074;11.968;2022-09-09T10:30:10;2.33;;;2.13;;
18042;SDS011;9146;48.074;11.968;2022-09-09T10:32:46;4.03;;;2.00;;
18042;SDS011;9146;48.074;11.968;2022-09-09T10:38:15;3.10;;;2.23;;
18042;SDS011;9146;48.074;11.968;2022-09-09T10:41:00;2.17;;;2.07;;
18042;SDS011;9146;48.074;11.968;2022-09-09T10:43:42;6.23;;;2.90;;
18042;SDS011;9146;48.074;11.968;2022-09-09T10:46:23;6.00;;;2.33;;
18042;SDS011;9146;48.074;11.968;2022-09-09T10:49:03;2.47;;;2.17;;
18042;SDS011;9146;48.074;11.968;2022-09-09T10:51:44;2.70;;;2.50;;
18042;SDS011;9146;48.074;11.968;2022-09-09T10:57:11;6.53;;;4.37;;
18042;SDS011;9146;48.074;11.968;2022-09-09T10:59:43;6.57;;;4.37;;
18042;SDS011;9146;48.074;11.968;2022-09-09T11:02:15;6.53;;;4.10;;
18042;SDS011;9146;48.074;11.968;2022-09-09T11:04:47;5.50;;;3.33;;
18042;SDS011;9146;48.074;11.968;2022-09-09T11:07:21;7.67;;;3.93;;
18042;SDS011;9146;48.074;11.968;2022-09-09T11:09:54;11.57;;;4.17;;
18042;SDS011;9146;48.074;11.968;2022-09-09T11:12:27;8.47;;;5.13;;
18042;SDS011;9146;48.074;11.968;2022-09-09T11:14:57;13.13;;;7.23;;
18042;SDS011;9146;48.074;11.968;2022-09-09T11:17:33;14.80;;;5.47;;
18042;SDS011;9146;48.074;11.968;2022-09-09T11:20:06;10.23;;;5.03;;
18042;SDS011;9146;48.074;11.968;2022-09-09T11:22:39;5.20;;;3.10;;
18042;SDS011;9146;48.074;11.968;2022-09-09T11:25:14;5.73;;;3.80;;
18042;SDS011;9146;48.074;11.968;2022-09-09T11:27:49;6.93;;;3.70;;
18042;SDS011;9146;48.074;11.968;2022-09-09T11:30:36;2.83;;;2.63;;
18042;SDS011;9146;48.074;11.968;2022-09-09T11:33:31;3.50;;;2.20;;
18042;SDS011;9146;48.074;11.968;2022-09-09T11:36:15;2.77;;;1.77;;
18042;SDS011;9146;48.074;11.968;2022-09-09T11:38:52;1.43;;;1.33;;
18042;SDS011;9146;48.074;11.968;2022-09-09T11:41:32;1.80;;;1.70;;
18042;SDS011;9146;48.074;11.968;2022-09-09T11:44:08;2.03;;;1.50;;
18042;SDS011;9146;48.074;11.968;2022-09-09T11:46:37;1.70;;;1.60;;
18042;SDS011;9146;48.074;11.968;2022-09-09T11:49:21;1.80;;;1.60;;
18042;SDS011;9146;48.074;11.968;2022-09-09T11:51:53;1.80;;;1.70;;
18042;SDS011;9146;48.074;11.968;2022-09-09T11:54:30;3.07;;;2.07;;
18042;SDS011;9146;48.074;11.968;2022-09-09T11:56:58;1.60;;;1.50;;
18042;SDS011;9146;48.074;11.968;2022-09-09T11:59:27;1.60;;;1.50;;
18042;SDS011;9146;48.074;11.968;2022-09-09T12:01:56;3.27;;;1.40;;
18042;SDS011;9146;48.074;11.968;2022-09-09T12:04:32;1.57;;;1.43;;
18042;SDS011;9146;48.074;11.968;2022-09-09T12:07:03;1.17;;;1.07;;
18042;SDS011;9146;48.074;11.968;2022-09-09T12:09:47;1.17;;;1.17;;
18042;SDS011;9146;48.074;11.968;2022-09-09T12:12:24;1.40;;;1.30;;
18042;SDS011;9146;48.074;11.968;2022-09-09T12:17:49;1.10;;;1.10;;
18042;SDS011;9146;48.074;11.968;2022-09-09T12:20:18;3.33;;;2.57;;
18042;SDS011;9146;48.074;11.968;2022-09-09T12:22:50;2.10;;;1.43;;
18042;SDS011;9146;48.074;11.968;2022-09-09T12:25:29;1.20;;;1.20;;
18042;SDS011;9146;48.074;11.968;2022-09-09T12:28:04;1.53;;;1.43;;
18042;SDS011;9146;48.074;11.968;2022-09-09T12:30:40;1.40;;;1.30;;
18042;SDS011;9146;48.074;11.968;2022-09-09T12:33:16;4.27;;;1.20;;
18042;SDS011;9146;48.074;11.968;2022-09-09T12:35:45;1.10;;;1.10;;
18042;SDS011;9146;48.074;11.968;2022-09-09T12:38:21;1.47;;;1.00;;
18042;SDS011;9146;48.074;11.968;2022-09-09T12:40:55;1.20;;;1.10;;
18042;SDS011;9146;48.074;11.968;2022-09-09T12:43:23;1.77;;;1.30;;
18042;SDS011;9146;48.074;11.968;2022-09-09T12:45:54;3.13;;;1.20;;
18042;SDS011;9146;48.074;11.968;2022-09-09T12:48:27;1.23;;;1.10;;
18042;SDS011;9146;48.074;11.968;2022-09-09T12:50:58;1.10;;;1.00;;
18042;SDS011;9146;48.074;11.968;2022-09-09T12:53:26;3.27;;;1.10;;
18042;SDS011;9146;48.074;11.968;2022-09-09T12:55:56;1.70;;;1.00;;
18042;SDS011;9146;48.074;11.968;2022-09-09T12:58:25;1.10;;;1.00;;
18042;SDS011;9146;48.074;11.968;2022-09-09T13:00:59;1.73;;;1.10;;
18042;SDS011;9146;48.074;11.968;2022-09-09T13:03:30;1.90;;;1.30;;
18042;SDS011;9146;48.074;11.968;2022-09-09T13:05:58;2.37;;;1.27;;
18042;SDS011;9146;48.074;11.968;2022-09-09T13:08:36;1.50;;;1.23;;
18042;SDS011;9146;48.074;11.968;2022-09-09T13:11:04;1.67;;;1.30;;
18042;SDS011;9146;48.074;11.968;2022-09-09T13:13:35;0.80;;;0.80;;
18042;SDS011;9146;48.074;11.968;2022-09-09T13:16:05;1.00;;;0.90;;
18042;SDS011;9146;48.074;11.968;2022-09-09T13:18:42;0.80;;;0.80;;
18042;SDS011;9146;48.074;11.968;2022-09-09T13:21:09;1.10;;;1.00;;
18042;SDS011;9146;48.074;11.968;2022-09-09T13:23:36;1.73;;;1.10;;
18042;SDS011;9146;48.074;11.968;2022-09-09T13:26:05;2.30;;;1.63;;
18042;SDS011;9146;48.074;11.968;2022-09-09T13:28:46;1.00;;;1.00;;
18042;SDS011;9146;48.074;11.968;2022-09-09T13:31:20;2.60;;;2.17;;
18042;SDS011;9146;48.074;11.968;2022-09-09T13:33:49;8.13;;;4.17;;
18042;SDS011;9146;48.074;11.968;2022-09-09T13:36:26;6.43;;;4.07;;
18042;SDS011;9146;48.074;11.968;2022-09-09T13:38:56;9.10;;;6.33;;
18042;SDS011;9146;48.074;11.968;2022-09-09T13:41:26;5.10;;;3.57;;
18042;SDS011;9146;48.074;11.968;2022-09-09T13:43:57;3.00;;;2.70;;
18042;SDS011;9146;48.074;11.968;2022-09-09T13:46:27;2.00;;;1.80;;
18042;SDS011;9146;48.074;11.968;2022-09-09T13:48:58;1.80;;;1.70;;
18042;SDS011;9146;48.074;11.968;2022-09-09T13:51:32;1.53;;;1.43;;
18042;SDS011;9146;48.074;11.968;2022-09-09T13:54:02;1.30;;;1.23;;
18042;SDS011;9146;48.074;11.968;2022-09-09T13:56:31;1.50;;;1.40;;
18042;SDS011;9146;48.074;11.968;2022-09-09T13:58:58;1.20;;;1.10;;
18042;SDS011;9146;48.074;11.968;2022-09-09T14:01:26;1.30;;;1.20;;
18042;SDS011;9146;48.074;11.968;2022-09-09T14:03:54;1.37;;;1.27;;
18042;SDS011;9146;48.074;11.968;2022-09-09T14:06:21;1.43;;;1.33;;
18042;SDS011;9146;48.074;11.968;2022-09-09T14:08:48;1.60;;;1.50;;
18042;SDS011;9146;48.074;11.968;2022-09-09T14:11:16;2.70;;;1.47;;
18042;SDS011;9146;48.074;11.968;2022-09-09T14:13:44;2.13;;;0.90;;
18042;SDS011;9146;48.074;11.968;2022-09-09T14:16:11;7.17;;;1.57;;
18042;SDS011;9146;48.074;11.968;2022-09-09T14:18:40;1.20;;;1.20;;
18042;SDS011;9146;48.074;11.968;2022-09-09T14:21:07;1.50;;;1.40;;
18042;SDS011;9146;48.074;11.968;2022-09-09T14:23:34;3.33;;;1.40;;
18042;SDS011;9146;48.074;11.968;2022-09-09T14:26:01;1.30;;;1.30;;
18042;SDS011;9146;48.074;11.968;2022-09-09T14:28:28;2.37;;;1.30;;
18042;SDS011;9146;48.074;11.968;2022-09-09T14:30:58;1.60;;;1.50;;
18042;SDS011;9146;48.074;11.968;2022-09-09T14:33:25;1.43;;;1.27;;
18042;SDS011;9146;48.074;11.968;2022-09-09T14:35:56;1.40;;;1.30;;
18042;SDS011;9146;48.074;11.968;2022-09-09T14:38:24;1.40;;;1.30;;
18042;SDS011;9146;48.074;11.968;2022-09-09T14:40:54;2.10;;;1.53;;
18042;SDS011;9146;48.074;11.968;2022-09-09T14:43:22;2.57;;;2.30;;
18042;SDS011;9146;48.074;11.968;2022-09-09T14:45:49;1.67;;;1.50;;
18042;SDS011;9146;48.074;11.968;2022-09-09T14:48:16;2.80;;;2.10;;
18042;SDS011;9146;48.074;11.968;2022-09-09T14:50:44;4.17;;;3.53;;
18042;SDS011;9146;48.074;11.968;2022-09-09T14:53:12;4.47;;;3.73;;
18042;SDS011;9146;48.074;11.968;2022-09-09T14:55:39;2.80;;;2.47;;
18042;SDS011;9146;48.074;11.968;2022-09-09T14:58:06;3.73;;;2.00;;
18042;SDS011;9146;48.074;11.968;2022-09-09T15:00:33;2.10;;;1.90;;
18042;SDS011;9146;48.074;11.968;2022-09-09T15:03:00;1.83;;;1.70;;
18042;SDS011;9146;48.074;11.968;2022-09-09T15:05:27;2.10;;;1.90;;
18042;SDS011;9146;48.074;11.968;2022-09-09T15:07:55;1.73;;;1.63;;
18042;SDS011;9146;48.074;11.968;2022-09-09T15:10:25;1.70;;;1.60;;
18042;SDS011;9146;48.074;11.968;2022-09-09T15:12:51;1.83;;;1.73;;
18042;SDS011;9146;48.074;11.968;2022-09-09T15:15:19;3.27;;;1.93;;
18042;SDS011;9146;48.074;11.968;2022-09-09T15:17:46;2.60;;;1.40;;
18042;SDS011;9146;48.074;11.968;2022-09-09T15:20:13;3.80;;;1.60;;